createdAt,value
2017-10-29T00:01:50.228Z,5.77
2017-10-29T00:04:17.695Z,5.27
2017-10-29T00:06:45.174Z,5.30
2017-10-29T00:09:13.420Z,5.23
2017-10-29T00:11:40.892Z,5.50
2017-10-29T00:14:08.367Z,5.03
2017-10-29T00:16:36.635Z,5.97
2017-10-29T00:19:04.874Z,5.00
2017-10-29T00:21:32.387Z,4.70
2017-10-29T00:23:59.886Z,5.00
2017-10-29T00:26:27.359Z,4.80
2017-10-29T00:28:54.847Z,5.20
2017-10-29T00:31:23.115Z,4.50
2017-10-29T00:33:51.359Z,4.57
2017-10-29T00:36:18.851Z,4.70
2017-10-29T00:38:47.123Z,4.53
2017-10-29T00:41:14.700Z,5.17
2017-10-29T00:43:42.947Z,5.30
2017-10-29T00:46:10.881Z,4.93
2017-10-29T00:48:38.354Z,4.47
2017-10-29T00:51:07.040Z,5.67
2017-10-29T00:53:34.519Z,4.60
2017-10-29T00:56:02.583Z,4.80
2017-10-29T00:58:30.168Z,5.00
2017-10-29T01:00:58.547Z,4.70
2017-10-29T01:03:26.783Z,5.33
2017-10-29T01:05:54.270Z,4.77
2017-10-29T01:08:21.749Z,4.77
2017-10-29T01:10:49.982Z,5.10
2017-10-29T01:13:17.580Z,5.60
2017-10-29T01:15:45.860Z,5.90
2017-10-29T01:18:13.430Z,5.05
2017-10-29T01:20:41.678Z,5.37
2017-10-29T01:23:09.153Z,5.87
2017-10-29T01:25:37.403Z,5.53
2017-10-29T01:28:04.887Z,5.43
2017-10-29T01:30:33.117Z,4.87
2017-10-29T01:33:00.595Z,5.00
2017-10-29T01:35:28.176Z,5.47
2017-10-29T01:37:56.407Z,5.57
2017-10-29T01:40:23.879Z,4.33
2017-10-29T01:42:51.363Z,4.70
2017-10-29T01:45:18.915Z,5.10
2017-10-29T01:47:46.491Z,4.70
2017-10-29T01:50:14.791Z,5.37
2017-10-29T01:52:42.264Z,4.43
2017-10-29T01:55:09.731Z,4.63
2017-10-29T01:57:37.217Z,4.10
2017-10-29T02:00:05.451Z,5.27
2017-10-29T02:02:32.988Z,4.40
2017-10-29T02:05:01.245Z,4.70
2017-10-29T02:07:28.814Z,4.70
2017-10-29T02:09:57.056Z,4.00
2017-10-29T02:12:24.546Z,4.40
2017-10-29T02:14:52.822Z,3.97
2017-10-29T02:17:21.072Z,3.93
2017-10-29T02:19:48.561Z,4.47
2017-10-29T02:22:16.325Z,3.58
2017-10-29T02:24:43.804Z,3.47
2017-10-29T02:27:11.292Z,4.00
2017-10-29T02:29:38.798Z,3.73
2017-10-29T02:32:07.084Z,3.60
2017-10-29T02:34:34.635Z,3.80
2017-10-29T02:37:02.911Z,3.50
2017-10-29T02:39:31.189Z,3.70
2017-10-29T02:41:59.447Z,2.73
2017-10-29T02:44:27.033Z,3.90
2017-10-29T02:46:55.267Z,3.07
2017-10-29T02:49:22.761Z,3.00
2017-10-29T02:51:50.999Z,2.77
2017-10-29T02:54:18.495Z,3.43
2017-10-29T02:56:46.771Z,3.10
2017-10-29T02:59:15.019Z,2.90
2017-10-29T03:01:42.492Z,2.93
2017-10-29T03:04:09.980Z,3.60
2017-10-29T03:06:37.462Z,3.00
2017-10-29T03:09:04.970Z,2.67
2017-10-29T03:11:33.233Z,3.10
2017-10-29T03:14:00.708Z,3.10
2017-10-29T03:16:28.178Z,2.57
2017-10-29T03:18:56.442Z,3.07
2017-10-29T03:21:23.924Z,3.30
2017-10-29T03:23:51.468Z,3.50
2017-10-29T03:26:19.468Z,3.50
2017-10-29T03:28:46.987Z,3.20
2017-10-29T03:31:14.553Z,2.70
2017-10-29T03:33:42.828Z,2.80
2017-10-29T03:36:11.108Z,2.90
2017-10-29T03:38:39.384Z,2.90
2017-10-29T03:41:07.639Z,3.03
2017-10-29T03:43:36.615Z,3.17
2017-10-29T03:46:04.091Z,3.08
2017-10-29T03:48:32.344Z,3.07
2017-10-29T03:50:59.815Z,3.70
2017-10-29T03:53:27.443Z,3.60
2017-10-29T03:55:54.932Z,3.20
2017-10-29T03:58:22.419Z,2.83
2017-10-29T04:00:50.310Z,3.40
2017-10-29T04:03:17.801Z,2.90
2017-10-29T04:05:45.278Z,3.73
2017-10-29T04:08:12.772Z,2.90
2017-10-29T04:10:41.031Z,3.47
2017-10-29T04:13:08.601Z,3.27
2017-10-29T04:15:36.886Z,3.60
2017-10-29T04:18:04.387Z,3.87
2017-10-29T04:20:31.858Z,3.53
2017-10-29T04:22:59.352Z,2.93
2017-10-29T04:25:26.974Z,3.43
2017-10-29T04:27:54.455Z,3.30
2017-10-29T04:30:22.692Z,3.20
2017-10-29T04:32:51.960Z,3.60
2017-10-29T04:35:21.116Z,3.00
2017-10-29T04:37:48.852Z,2.83
2017-10-29T04:40:16.342Z,3.43
2017-10-29T04:42:43.813Z,3.83
2017-10-29T04:45:11.283Z,3.83
2017-10-29T04:47:38.843Z,3.43
2017-10-29T04:50:07.083Z,3.40
2017-10-29T04:52:34.566Z,3.03
2017-10-29T04:55:02.043Z,3.23
2017-10-29T04:57:30.303Z,3.33
2017-10-29T04:59:57.771Z,3.60
2017-10-29T05:02:26.015Z,2.77
2017-10-29T05:04:53.507Z,3.67
2017-10-29T05:07:22.671Z,3.13
2017-10-29T05:09:50.414Z,3.03
2017-10-29T05:12:17.890Z,3.50
2017-10-29T05:14:45.367Z,3.33
2017-10-29T05:17:12.851Z,3.50
2017-10-29T05:19:41.114Z,3.00
2017-10-29T05:22:08.678Z,2.70
2017-10-29T05:24:36.930Z,2.80
2017-10-29T05:27:04.421Z,2.97
2017-10-29T05:29:32.659Z,2.90
2017-10-29T05:32:00.254Z,3.03
2017-10-29T05:34:28.528Z,3.07
2017-10-29T05:36:56.827Z,3.40
2017-10-29T05:39:24.316Z,3.10
2017-10-29T05:41:52.715Z,3.90
2017-10-29T05:44:20.207Z,2.90
2017-10-29T05:46:48.468Z,4.47
2017-10-29T05:49:16.033Z,3.27
2017-10-29T05:51:43.599Z,3.87
2017-10-29T05:54:11.846Z,2.90
2017-10-29T05:56:39.325Z,3.40
2017-10-29T05:59:06.803Z,3.77
2017-10-29T06:01:35.051Z,4.00
2017-10-29T06:04:02.527Z,3.20
2017-10-29T06:06:30.766Z,3.27
2017-10-29T06:08:58.358Z,3.30
2017-10-29T06:11:26.646Z,3.30
2017-10-29T06:13:54.887Z,2.97
2017-10-29T06:16:22.405Z,3.70
2017-10-29T06:18:49.934Z,2.87
2017-10-29T06:21:18.178Z,2.97
2017-10-29T06:23:45.786Z,3.60
2017-10-29T06:26:13.266Z,3.50
2017-10-29T06:28:40.792Z,2.83
2017-10-29T06:31:09.070Z,2.93
2017-10-29T06:33:37.320Z,3.00
2017-10-29T06:36:04.812Z,2.37
2017-10-29T06:38:33.055Z,2.73
2017-10-29T06:41:00.528Z,2.70
2017-10-29T06:43:27.999Z,2.77
2017-10-29T06:45:56.268Z,2.80
2017-10-29T06:48:25.435Z,2.33
2017-10-29T06:50:52.915Z,2.33
2017-10-29T06:53:20.391Z,1.93
2017-10-29T06:55:48.651Z,2.40
2017-10-29T06:58:16.900Z,2.17
2017-10-29T07:00:44.492Z,2.10
2017-10-29T07:03:12.735Z,2.70
2017-10-29T07:05:40.211Z,2.37
2017-10-29T07:08:07.691Z,2.50
2017-10-29T07:10:35.963Z,2.80
2017-10-29T07:13:04.203Z,2.73
2017-10-29T07:15:31.699Z,2.47
2017-10-29T07:18:00.063Z,3.07
2017-10-29T07:20:27.631Z,2.80
2017-10-29T07:22:55.832Z,3.33
2017-10-29T07:25:23.311Z,3.23
2017-10-29T07:27:50.788Z,3.20
2017-10-29T07:30:18.279Z,3.30
2017-10-29T07:32:45.760Z,3.20
2017-10-29T07:35:13.995Z,3.30
2017-10-29T07:37:41.492Z,3.67
2017-10-29T07:40:09.736Z,3.53
2017-10-29T07:42:37.316Z,3.60
2017-10-29T07:45:05.562Z,3.50
2017-10-29T07:47:33.048Z,4.27
2017-10-29T07:50:01.320Z,3.50
2017-10-29T07:52:28.816Z,3.53
2017-10-29T07:54:56.294Z,4.17
2017-10-29T07:57:23.772Z,3.87
2017-10-29T07:59:51.363Z,3.83
2017-10-29T08:02:19.607Z,4.13
2017-10-29T08:04:47.079Z,4.60
2017-10-29T08:07:14.560Z,4.40
2017-10-29T08:09:42.927Z,4.50
2017-10-29T08:12:10.498Z,5.53
2017-10-29T08:14:38.739Z,5.20
2017-10-29T08:17:06.211Z,5.10
2017-10-29T08:19:33.787Z,6.10
2017-10-29T08:22:02.107Z,6.20
2017-10-29T08:24:29.643Z,5.47
2017-10-29T08:26:57.127Z,5.13
2017-10-29T08:29:24.609Z,5.83
2017-10-29T08:31:52.095Z,5.20
2017-10-29T08:34:19.566Z,5.20
2017-10-29T08:36:47.843Z,4.80
2017-10-29T08:39:16.090Z,5.30
2017-10-29T08:41:43.573Z,5.20
2017-10-29T08:44:11.836Z,4.67
2017-10-29T08:46:39.326Z,5.00
2017-10-29T08:49:06.866Z,4.17
2017-10-29T08:51:35.132Z,4.10
2017-10-29T08:54:02.609Z,3.60
2017-10-29T08:56:30.865Z,3.40
2017-10-29T08:58:58.348Z,3.37
2017-10-29T09:01:25.899Z,3.30
2017-10-29T09:03:54.147Z,3.20
2017-10-29T09:06:21.735Z,2.27
2017-10-29T09:08:50.008Z,1.30
2017-10-29T09:11:18.240Z,1.53
2017-10-29T09:13:45.736Z,1.20
2017-10-29T09:16:13.969Z,1.37
2017-10-29T09:18:41.475Z,1.00
2017-10-29T09:21:09.723Z,1.10
2017-10-29T09:23:37.199Z,1.40
2017-10-29T09:26:04.679Z,0.87
2017-10-29T09:28:32.939Z,0.70
2017-10-29T09:31:01.214Z,1.40
2017-10-29T09:33:29.457Z,1.20
2017-10-29T09:35:58.624Z,1.03
2017-10-29T09:38:26.147Z,1.60
2017-10-29T09:40:54.036Z,0.97
2017-10-29T09:43:22.289Z,1.93
2017-10-29T09:45:49.768Z,1.37
2017-10-29T09:48:18.004Z,0.80
2017-10-29T09:50:45.584Z,1.20
2017-10-29T09:53:13.058Z,1.20
2017-10-29T09:55:41.330Z,1.00
2017-10-29T09:58:08.804Z,0.98
2017-10-29T10:00:36.279Z,0.70
2017-10-29T10:03:03.760Z,0.90
2017-10-29T10:05:31.248Z,1.30
2017-10-29T10:07:58.727Z,0.90
2017-10-29T10:10:26.206Z,1.17
2017-10-29T10:12:53.695Z,1.50
2017-10-29T10:15:21.172Z,1.00
2017-10-29T10:17:48.647Z,0.60
2017-10-29T10:20:16.898Z,1.10
2017-10-29T10:22:44.363Z,1.87
2017-10-29T10:25:11.951Z,0.70
2017-10-29T10:27:40.195Z,0.90
2017-10-29T10:30:09.219Z,0.80
2017-10-29T10:32:37.487Z,1.03
2017-10-29T10:35:05.742Z,0.80
2017-10-29T10:37:33.354Z,1.20
2017-10-29T10:40:00.993Z,1.13
2017-10-29T10:42:30.054Z,1.00
2017-10-29T10:44:57.553Z,1.00
2017-10-29T10:47:25.810Z,1.10
2017-10-29T10:49:53.304Z,2.47
2017-10-29T10:52:20.788Z,0.83
2017-10-29T10:54:48.264Z,1.77
2017-10-29T10:57:15.752Z,1.17
2017-10-29T10:59:43.994Z,1.57
2017-10-29T11:02:11.483Z,1.00
2017-10-29T11:04:41.539Z,1.70
2017-10-29T11:07:09.052Z,1.33
2017-10-29T11:09:36.520Z,1.23
2017-10-29T11:12:04.781Z,1.00
2017-10-29T11:14:33.825Z,1.80
2017-10-29T11:17:01.299Z,1.07
2017-10-29T11:19:29.711Z,1.10
2017-10-29T11:21:57.185Z,1.13
2017-10-29T11:24:25.467Z,1.30
2017-10-29T11:26:53.743Z,1.37
2017-10-29T11:29:21.994Z,1.13
2017-10-29T11:31:49.467Z,1.53
2017-10-29T11:34:16.960Z,1.23
2017-10-29T11:36:44.439Z,1.73
2017-10-29T11:39:11.915Z,1.40
2017-10-29T11:41:39.503Z,1.33
2017-10-29T11:44:06.992Z,1.10
2017-10-29T11:46:35.236Z,1.40
2017-10-29T11:49:02.728Z,1.10
2017-10-29T11:51:30.469Z,0.93
2017-10-29T11:53:58.762Z,1.00
2017-10-29T11:56:26.304Z,0.73
2017-10-29T11:58:54.552Z,1.10
2017-10-29T12:01:22.024Z,0.80
2017-10-29T12:03:50.284Z,1.37
2017-10-29T12:06:18.148Z,1.30
2017-10-29T12:08:45.671Z,1.53
2017-10-29T12:11:13.171Z,1.50
2017-10-29T12:13:40.655Z,1.10
2017-10-29T12:16:08.940Z,1.10
2017-10-29T12:18:37.192Z,1.30
2017-10-29T12:21:05.607Z,1.90
2017-10-29T12:23:33.084Z,1.87
2017-10-29T12:26:01.045Z,2.00
2017-10-29T12:28:28.527Z,1.57
2017-10-29T12:30:56.015Z,1.17
2017-10-29T12:33:23.521Z,1.00
2017-10-29T12:35:51.000Z,1.80
2017-10-29T12:38:18.481Z,1.10
2017-10-29T12:40:46.064Z,1.00
2017-10-29T12:43:13.898Z,1.87
2017-10-29T12:45:41.373Z,2.37
2017-10-29T12:48:08.867Z,1.77
2017-10-29T12:50:36.349Z,1.53
2017-10-29T12:53:03.830Z,1.30
2017-10-29T12:55:32.367Z,1.43
2017-10-29T12:58:00.034Z,1.37
2017-10-29T13:00:27.519Z,1.90
2017-10-29T13:02:55.027Z,1.67
2017-10-29T13:05:23.276Z,1.53
2017-10-29T13:07:50.768Z,1.77
2017-10-29T13:10:19.018Z,1.40
2017-10-29T13:12:46.600Z,1.93
2017-10-29T13:15:14.848Z,1.23
2017-10-29T13:17:42.444Z,1.40
2017-10-29T13:20:10.695Z,1.47
2017-10-29T13:22:38.272Z,1.23
2017-10-29T13:25:06.524Z,1.20
2017-10-29T13:27:34.010Z,0.90
2017-10-29T13:30:02.304Z,1.73
2017-10-29T13:32:29.816Z,1.20
2017-10-29T13:34:57.299Z,1.40
2017-10-29T13:37:25.579Z,1.87
2017-10-29T13:39:53.836Z,1.10
2017-10-29T13:42:22.083Z,1.10
2017-10-29T13:44:49.632Z,1.53
2017-10-29T13:47:17.147Z,1.20
2017-10-29T13:49:45.391Z,1.10
2017-10-29T13:52:12.895Z,1.40
2017-10-29T13:54:41.146Z,1.20
2017-10-29T13:57:10.132Z,1.40
2017-10-29T13:59:38.477Z,1.27
2017-10-29T14:02:05.965Z,1.60
2017-10-29T14:04:33.554Z,1.07
2017-10-29T14:07:01.799Z,0.90
2017-10-29T14:09:29.289Z,1.40
2017-10-29T14:11:57.526Z,0.67
2017-10-29T14:14:25.034Z,1.30
2017-10-29T14:16:53.299Z,1.00
2017-10-29T14:19:21.607Z,1.00
2017-10-29T14:21:49.088Z,1.30
2017-10-29T14:24:16.576Z,0.90
2017-10-29T14:26:44.046Z,1.53
2017-10-29T14:29:12.300Z,1.20
2017-10-29T14:31:41.332Z,1.27
2017-10-29T14:34:09.610Z,1.17
2017-10-29T14:36:37.881Z,1.60
2017-10-29T14:39:06.164Z,1.10
2017-10-29T14:41:34.027Z,1.15
2017-10-29T14:44:02.271Z,1.10
2017-10-29T14:46:29.847Z,1.40
2017-10-29T14:48:58.091Z,1.33
2017-10-29T14:51:25.576Z,1.80
2017-10-29T14:53:53.072Z,1.33
2017-10-29T14:56:20.654Z,1.57
2017-10-29T14:58:48.199Z,1.57
2017-10-29T15:01:15.687Z,1.03
2017-10-29T15:03:43.183Z,1.17
2017-10-29T15:06:11.425Z,1.27
2017-10-29T15:08:38.914Z,1.27
2017-10-29T15:11:07.160Z,0.97
2017-10-29T15:13:34.964Z,1.58
2017-10-29T15:16:03.230Z,1.17
2017-10-29T15:18:31.476Z,1.33
2017-10-29T15:20:58.960Z,1.00
2017-10-29T15:23:26.772Z,1.47
2017-10-29T15:25:54.294Z,1.67
2017-10-29T15:28:22.539Z,1.83
2017-10-29T15:30:50.128Z,1.20
2017-10-29T15:33:18.398Z,1.53
2017-10-29T15:35:45.980Z,1.70
2017-10-29T15:38:14.236Z,1.87
2017-10-29T15:40:41.799Z,1.97
2017-10-29T15:43:10.046Z,3.10
2017-10-29T15:45:37.531Z,2.70
2017-10-29T15:48:06.537Z,2.70
2017-10-29T15:50:35.695Z,1.47
2017-10-29T15:53:03.177Z,1.90
2017-10-29T15:55:30.740Z,1.47
2017-10-29T15:57:58.315Z,1.77
2017-10-29T16:00:26.583Z,1.53
2017-10-29T16:02:54.823Z,1.73
2017-10-29T16:05:22.287Z,1.87
2017-10-29T16:07:49.774Z,1.43
2017-10-29T16:10:18.011Z,1.90
2017-10-29T16:12:45.516Z,1.83
2017-10-29T16:15:13.787Z,1.70
2017-10-29T16:17:42.269Z,2.03
2017-10-29T16:20:10.518Z,2.90
2017-10-29T16:22:38.108Z,2.00
2017-10-29T16:25:07.280Z,1.57
2017-10-29T16:27:34.748Z,2.70
2017-10-29T16:30:02.240Z,1.10
2017-10-29T16:32:29.788Z,2.07
2017-10-29T16:34:58.043Z,1.33
2017-10-29T16:37:25.627Z,1.33
2017-10-29T16:39:53.872Z,1.30
2017-10-29T16:42:21.460Z,2.13
2017-10-29T16:44:49.735Z,1.60
2017-10-29T16:47:17.999Z,1.70
2017-10-29T16:49:46.235Z,1.83
